createdAt,value
2022-08-22T00:00:13.385Z,17.42
2022-08-22T00:02:47.156Z,17.62
2022-08-22T00:02:53.053Z,18.94
2022-08-22T00:02:54.358Z,18.71
2022-08-22T00:02:59.281Z,16.99
2022-08-22T00:03:10.012Z,16.92
2022-08-22T00:03:11.561Z,19.80
2022-08-22T00:03:26.953Z,17.52
2022-08-22T00:06:10.993Z,17.31
2022-08-22T00:08:56.789Z,17.33
2022-08-22T00:11:36.432Z,17.66
2022-08-22T00:14:17.739Z,17.34
2022-08-22T00:17:01.041Z,17.20
2022-08-22T00:19:47.213Z,17.70
2022-08-22T00:22:26.262Z,17.88
2022-08-22T00:25:24.602Z,17.46
2022-08-22T00:28:02.351Z,17.57
2022-08-22T00:30:43.734Z,17.66
2022-08-22T00:33:25.320Z,17.63
2022-08-22T00:36:10.498Z,17.73
2022-08-22T00:38:50.540Z,17.73
2022-08-22T00:41:38.461Z,17.71
2022-08-22T00:44:46.268Z,17.54
2022-08-22T00:47:39.474Z,17.02
2022-08-22T00:50:45.617Z,16.80
2022-08-22T00:53:43.918Z,16.74
2022-08-22T00:56:35.479Z,16.78
2022-08-22T00:59:24.274Z,16.59
2022-08-22T01:02:06.699Z,16.58
2022-08-22T01:04:56.758Z,16.53
2022-08-22T01:07:52.672Z,16.37
2022-08-22T01:10:44.079Z,16.34
2022-08-22T01:13:36.909Z,16.27
2022-08-22T01:16:23.259Z,16.31
2022-08-22T01:19:08.540Z,16.34
2022-08-22T01:22:16.133Z,16.34
2022-08-22T01:25:22.407Z,16.35
2022-08-22T01:28:27.835Z,16.29
2022-08-22T01:31:44.582Z,16.15
2022-08-22T01:34:47.545Z,16.20
2022-08-22T01:37:46.082Z,16.12
2022-08-22T01:40:53.341Z,15.97
2022-08-22T01:43:59.569Z,16.00
2022-08-22T01:46:45.327Z,16.03
2022-08-22T01:49:23.992Z,16.07
2022-08-22T01:52:03.115Z,16.04
2022-08-22T01:54:47.325Z,15.93
2022-08-22T01:57:20.624Z,15.94
2022-08-22T01:59:57.970Z,15.88
2022-08-22T02:02:54.448Z,15.87
2022-08-22T02:05:32.162Z,15.84
2022-08-22T02:08:17.656Z,15.85
2022-08-22T02:11:03.166Z,15.85
2022-08-22T02:13:55.959Z,15.79
2022-08-22T02:16:38.500Z,15.70
2022-08-22T02:19:25.403Z,15.69
2022-08-22T02:22:03.274Z,15.67
2022-08-22T02:24:52.047Z,15.74
2022-08-22T02:27:36.339Z,15.65
2022-08-22T02:30:12.242Z,15.64
2022-08-22T02:32:57.773Z,15.59
2022-08-22T02:35:36.946Z,15.59
2022-08-22T02:38:26.473Z,15.45
2022-08-22T02:41:13.763Z,15.53
2022-08-22T02:43:52.419Z,15.59
2022-08-22T02:46:32.801Z,15.58
2022-08-22T02:49:13.048Z,15.61
2022-08-22T02:51:55.430Z,15.63
2022-08-22T02:54:33.950Z,15.59
2022-08-22T02:57:14.159Z,15.54
2022-08-22T03:00:30.720Z,15.49
2022-08-22T03:03:08.457Z,15.47
2022-08-22T03:05:59.040Z,15.45
2022-08-22T03:08:35.575Z,15.47
2022-08-22T03:11:19.292Z,15.41
2022-08-22T03:14:04.197Z,15.40
2022-08-22T03:16:41.575Z,15.37
2022-08-22T03:19:19.708Z,15.42
2022-08-22T03:21:59.961Z,15.49
2022-08-22T03:24:44.231Z,15.48
2022-08-22T03:27:32.908Z,15.53
2022-08-22T03:30:16.760Z,15.53
2022-08-22T03:32:56.908Z,15.47
2022-08-22T03:35:40.315Z,15.52
2022-08-22T03:38:24.085Z,15.59
2022-08-22T03:41:25.822Z,15.68
2022-08-22T03:44:36.729Z,15.65
2022-08-22T03:47:41.279Z,15.64
2022-08-22T03:50:50.984Z,15.89
2022-08-22T03:54:03.720Z,16.03
2022-08-22T03:57:01.380Z,15.98
2022-08-22T04:00:10.910Z,16.20
2022-08-22T04:03:19.480Z,16.30
2022-08-22T04:06:23.389Z,16.27
2022-08-22T04:09:24.341Z,16.27
2022-08-22T04:12:31.543Z,16.16
2022-08-22T04:15:33.894Z,16.02
2022-08-22T04:18:27.850Z,16.27
2022-08-22T04:21:30.123Z,15.79
2022-08-22T04:24:34.115Z,15.93
2022-08-22T04:27:15.670Z,15.91
2022-08-22T04:29:53.386Z,16.03
2022-08-22T04:32:34.638Z,16.18
2022-08-22T04:35:39.385Z,16.04
2022-08-22T04:38:19.053Z,16.47
2022-08-22T04:41:02.558Z,16.13
2022-08-22T04:43:43.430Z,16.27
2022-08-22T04:46:23.284Z,16.57
2022-08-22T04:49:03.248Z,16.41
2022-08-22T04:51:44.508Z,16.18
2022-08-22T04:54:40.462Z,16.22
2022-08-22T04:57:23.423Z,16.29
2022-08-22T05:00:03.766Z,16.35
2022-08-22T05:02:39.660Z,16.41
2022-08-22T05:05:19.659Z,16.42
2022-08-22T05:07:58.942Z,16.45
2022-08-22T05:10:41.116Z,16.55
2022-08-22T05:13:18.515Z,16.68
2022-08-22T05:15:53.192Z,16.82
2022-08-22T05:18:31.737Z,16.88
2022-08-22T05:21:08.247Z,16.92
2022-08-22T05:23:51.673Z,17.01
2022-08-22T05:26:24.884Z,17.08
2022-08-22T05:29:01.298Z,17.20
2022-08-22T05:31:35.928Z,17.26
2022-08-22T05:34:11.809Z,17.32
2022-08-22T05:36:49.193Z,17.52
2022-08-22T05:39:29.940Z,17.64
2022-08-22T05:42:06.363Z,17.74
2022-08-22T05:44:40.655Z,18.21
2022-08-22T05:47:31.393Z,18.66
2022-08-22T05:50:08.075Z,18.84
2022-08-22T05:52:58.141Z,18.44
2022-08-22T05:55:43.060Z,18.37
2022-08-22T05:58:45.024Z,18.41
2022-08-22T06:01:28.141Z,18.50
2022-08-22T06:04:07.761Z,18.65
2022-08-22T06:06:46.217Z,18.79
2022-08-22T06:09:23.114Z,18.92
2022-08-22T06:12:04.378Z,19.40
2022-08-22T06:14:46.741Z,19.59
2022-08-22T06:17:23.019Z,19.59
2022-08-22T06:19:57.991Z,19.79
2022-08-22T06:22:34.004Z,20.70
2022-08-22T06:25:13.305Z,20.92
2022-08-22T06:27:50.766Z,21.30
2022-08-22T06:30:26.322Z,22.16
2022-08-22T06:33:02.986Z,21.78
2022-08-22T06:35:54.109Z,22.18
2022-08-22T06:38:36.149Z,22.38
2022-08-22T06:41:15.177Z,23.04
2022-08-22T06:43:50.371Z,22.44
2022-08-22T06:46:25.788Z,23.13
2022-08-22T06:49:01.457Z,22.76
2022-08-22T06:51:38.270Z,22.78
2022-08-22T06:54:19.548Z,22.90
2022-08-22T06:56:56.749Z,23.22
2022-08-22T06:59:39.968Z,23.14
2022-08-22T07:02:27.432Z,23.35
2022-08-22T07:05:00.062Z,23.16
2022-08-22T07:07:32.347Z,23.41
2022-08-22T07:10:04.260Z,23.78
2022-08-22T07:12:41.379Z,23.14
2022-08-22T07:15:24.609Z,23.26
2022-08-22T07:18:02.434Z,23.56
2022-08-22T07:20:39.936Z,23.67
2022-08-22T07:23:15.574Z,23.78
2022-08-22T07:25:56.286Z,24.18
2022-08-22T07:28:50.813Z,24.09
2022-08-22T07:31:38.447Z,24.09
2022-08-22T07:34:38.912Z,24.54
2022-08-22T07:37:16.294Z,23.91
2022-08-22T07:39:58.659Z,24.12
2022-08-22T07:42:40.453Z,23.78
2022-08-22T07:45:20.970Z,24.50
2022-08-22T07:48:06.671Z,24.21
2022-08-22T07:50:46.019Z,24.15
2022-08-22T07:53:25.623Z,24.21
2022-08-22T07:56:00.693Z,24.73
2022-08-22T07:58:35.422Z,24.56
2022-08-22T08:01:09.812Z,23.90
2022-08-22T08:03:46.516Z,24.32
2022-08-22T08:06:18.659Z,24.87
2022-08-22T08:08:50.458Z,24.82
2022-08-22T08:11:26.708Z,25.02
2022-08-22T08:14:05.715Z,24.76
2022-08-22T08:16:53.818Z,24.83
2022-08-22T08:19:27.849Z,25.43
2022-08-22T08:22:04.899Z,25.53
2022-08-22T08:24:44.225Z,25.35
2022-08-22T08:27:37.727Z,25.32
2022-08-22T08:30:15.691Z,25.56
2022-08-22T08:33:12.095Z,25.86
2022-08-22T08:36:02.305Z,26.08
2022-08-22T08:38:43.504Z,26.32
2022-08-22T08:41:43.259Z,26.66
2022-08-22T08:44:37.780Z,26.76
2022-08-22T08:47:28.262Z,27.10
2022-08-22T08:50:16.743Z,26.55
2022-08-22T08:53:28.181Z,26.34
2022-08-22T08:56:07.760Z,26.05
2022-08-22T08:58:52.419Z,26.10
2022-08-22T09:01:41.734Z,25.89
2022-08-22T09:04:42.343Z,26.27
2022-08-22T09:07:58.371Z,26.07
2022-08-22T09:10:55.987Z,25.45
2022-08-22T09:13:55.260Z,25.35
2022-08-22T09:16:49.057Z,26.13
2022-08-22T09:19:52.662Z,26.43
2022-08-22T09:22:54.480Z,26.55
2022-08-22T09:25:38.521Z,26.34
2022-08-22T09:28:21.894Z,26.76
2022-08-22T09:31:16.942Z,27.07
2022-08-22T09:34:13.585Z,27.24
2022-08-22T09:37:14.146Z,27.13
2022-08-22T09:40:01.596Z,27.17
2022-08-22T09:42:46.409Z,26.83
2022-08-22T09:45:42.989Z,26.92
2022-08-22T09:48:41.053Z,26.76
2022-08-22T09:51:33.161Z,26.68
2022-08-22T09:54:20.958Z,26.86
2022-08-22T09:57:03.785Z,26.95
2022-08-22T09:59:59.083Z,27.22
2022-08-22T10:02:43.494Z,26.93
2022-08-22T10:05:35.214Z,26.76
2022-08-22T10:08:35.552Z,26.65
2022-08-22T10:11:19.783Z,26.88
2022-08-22T10:14:01.942Z,26.93
2022-08-22T10:17:13.727Z,26.80
2022-08-22T10:20:01.972Z,26.56
2022-08-22T10:22:46.539Z,27.11
2022-08-22T10:25:35.182Z,27.10
2022-08-22T10:28:18.317Z,26.78
2022-08-22T10:31:05.018Z,26.84
2022-08-22T10:33:44.401Z,27.49
2022-08-22T10:36:27.275Z,27.86
2022-08-22T10:39:11.021Z,27.87
2022-08-22T10:42:01.977Z,27.98
2022-08-22T10:44:48.089Z,28.11
2022-08-22T10:47:25.665Z,28.17
2022-08-22T10:50:02.917Z,28.24
2022-08-22T10:52:50.231Z,26.10
2022-08-22T10:55:28.800Z,26.52
2022-08-22T10:58:09.341Z,26.11
2022-08-22T11:00:51.912Z,25.59
2022-08-22T11:03:31.604Z,26.15
2022-08-22T11:06:06.642Z,25.83
2022-08-22T11:09:09.390Z,25.95
2022-08-22T11:11:46.198Z,26.22
2022-08-22T11:14:49.273Z,26.82
2022-08-22T11:17:41.672Z,27.11
2022-08-22T11:20:23.004Z,27.21
2022-08-22T11:23:17.268Z,27.04
2022-08-22T11:26:06.572Z,26.21
2022-08-22T11:29:13.839Z,27.22
2022-08-22T11:31:56.316Z,27.52
2022-08-22T11:34:49.558Z,28.32
2022-08-22T11:37:56.268Z,28.11
2022-08-22T11:40:41.817Z,27.65
2022-08-22T11:43:48.793Z,28.01
2022-08-22T11:46:32.841Z,27.70
2022-08-22T11:49:34.084Z,27.71
2022-08-22T11:52:21.583Z,26.58
2022-08-22T11:55:19.914Z,27.02
2022-08-22T11:57:59.560Z,26.76
2022-08-22T12:00:52.968Z,26.19
2022-08-22T12:03:42.935Z,26.42
2022-08-22T12:06:42.467Z,26.62
2022-08-22T12:09:38.110Z,26.00
2022-08-22T12:12:24.825Z,25.73
2022-08-22T12:15:05.452Z,25.57
2022-08-22T12:18:09.709Z,25.72
2022-08-22T12:21:06.662Z,25.59
2022-08-22T12:24:11.191Z,25.45
2022-08-22T12:27:28.823Z,25.52
2022-08-22T12:30:15.707Z,25.66
2022-08-22T12:33:23.206Z,25.73
2022-08-22T12:36:18.023Z,26.15
2022-08-22T12:39:07.756Z,26.15
2022-08-22T12:42:00.290Z,26.27
2022-08-22T12:44:52.298Z,25.76
2022-08-22T12:47:42.363Z,26.22
2022-08-22T12:50:32.912Z,26.35
2022-08-22T12:53:28.343Z,25.58
2022-08-22T12:56:14.333Z,25.67
2022-08-22T12:59:09.229Z,25.76
2022-08-22T13:01:47.495Z,25.71
2022-08-22T13:04:33.072Z,25.61
2022-08-22T13:07:24.921Z,25.66
2022-08-22T13:10:06.246Z,25.72
2022-08-22T13:12:46.568Z,25.70
2022-08-22T13:15:33.040Z,25.42
2022-08-22T13:18:29.421Z,25.93
2022-08-22T13:21:11.465Z,26.31
2022-08-22T13:23:55.036Z,25.62
2022-08-22T13:26:33.960Z,26.24
2022-08-22T13:29:26.202Z,25.57
2022-08-22T13:32:04.661Z,25.41
2022-08-22T13:34:43.564Z,25.41
2022-08-22T13:37:25.700Z,25.72
2022-08-22T13:40:07.488Z,25.64
2022-08-22T13:42:48.452Z,25.74
2022-08-22T13:45:27.054Z,25.10
2022-08-22T13:48:11.580Z,25.41
2022-08-22T13:51:04.658Z,25.40
2022-08-22T13:53:49.953Z,25.22
2022-08-22T13:56:47.305Z,24.89
2022-08-22T13:59:50.161Z,25.34
2022-08-22T14:02:43.385Z,25.19
2022-08-22T14:05:22.719Z,25.23
2022-08-22T14:08:13.042Z,25.11
2022-08-22T14:10:55.219Z,25.02
2022-08-22T14:13:46.123Z,25.18
2022-08-22T14:16:28.814Z,25.67
2022-08-22T14:19:06.157Z,25.50
2022-08-22T14:21:46.238Z,25.25
2022-08-22T14:24:28.780Z,25.01
2022-08-22T14:27:06.605Z,24.97
2022-08-22T14:29:50.129Z,25.05
2022-08-22T14:32:43.498Z,24.92
2022-08-22T14:35:34.724Z,24.90
2022-08-22T14:38:27.210Z,24.93
2022-08-22T14:41:05.907Z,24.67
2022-08-22T14:43:53.855Z,24.79
2022-08-22T14:46:38.533Z,24.86
2022-08-22T14:49:29.999Z,24.89
2022-08-22T14:52:19.599Z,24.74
2022-08-22T14:54:51.787Z,24.62
2022-08-22T14:57:27.237Z,24.60
2022-08-22T14:59:59.090Z,24.70
2022-08-22T15:02:36.353Z,25.20
2022-08-22T15:05:19.911Z,24.86
2022-08-22T15:07:59.769Z,24.52
2022-08-22T15:10:42.190Z,24.68
2022-08-22T15:13:14.972Z,24.75
2022-08-22T15:15:54.984Z,25.11
2022-08-22T15:18:41.424Z,24.92
2022-08-22T15:21:29.137Z,24.85
2022-08-22T15:24:08.375Z,24.89
2022-08-22T15:26:47.608Z,24.98
2022-08-22T15:29:26.587Z,25.48
2022-08-22T15:32:01.964Z,25.50
2022-08-22T15:34:42.265Z,25.57
2022-08-22T15:37:34.874Z,25.39
2022-08-22T15:40:14.616Z,25.47
2022-08-22T15:42:50.070Z,25.44
2022-08-22T15:45:33.740Z,25.57
2022-08-22T15:48:13.894Z,25.47
2022-08-22T15:51:04.944Z,25.20
2022-08-22T15:54:16.338Z,25.41
2022-08-22T15:57:29.806Z,25.32
2022-08-22T16:00:04.361Z,24.83
2022-08-22T16:03:01.993Z,24.66
2022-08-22T16:05:55.003Z,24.46
2022-08-22T16:08:33.269Z,24.52
2022-08-22T16:11:33.269Z,24.40
2022-08-22T16:14:23.527Z,24.45
2022-08-22T16:17:01.094Z,24.63
2022-08-22T16:19:35.765Z,24.52
2022-08-22T16:22:17.466Z,23.76
2022-08-22T16:25:03.228Z,24.25
2022-08-22T16:27:35.340Z,24.10
2022-08-22T16:30:17.707Z,24.10
2022-08-22T16:32:59.697Z,23.99
2022-08-22T16:36:29.307Z,23.88
2022-08-22T16:39:04.248Z,23.75
2022-08-22T16:41:41.947Z,23.90
2022-08-22T16:44:23.766Z,23.86
2022-08-22T16:46:58.267Z,23.75
2022-08-22T16:49:34.408Z,23.65
2022-08-22T16:52:36.507Z,23.61
2022-08-22T16:55:58.588Z,23.40
2022-08-22T16:59:01.070Z,23.27
2022-08-22T17:01:53.595Z,23.28
2022-08-22T17:04:35.467Z,23.15
2022-08-22T17:07:21.387Z,22.99
2022-08-22T17:10:19.029Z,23.44
2022-08-22T17:13:16.207Z,23.46
2022-08-22T17:16:02.909Z,23.52
2022-08-22T17:18:57.049Z,23.10
2022-08-22T17:21:34.647Z,22.88
2022-08-22T17:24:32.226Z,22.75
2022-08-22T17:27:20.029Z,22.59
2022-08-22T17:30:09.650Z,22.63
2022-08-22T17:33:00.097Z,22.56
2022-08-22T17:35:47.266Z,22.40
2022-08-22T17:38:35.670Z,22.47
2022-08-22T17:41:22.042Z,22.33
2022-08-22T17:44:02.982Z,22.18
2022-08-22T17:46:47.097Z,22.15
2022-08-22T17:49:28.852Z,22.20
2022-08-22T17:52:14.931Z,22.02
2022-08-22T17:54:55.451Z,21.99
2022-08-22T17:57:36.674Z,22.10
2022-08-22T18:00:18.991Z,21.98
2022-08-22T18:02:56.732Z,21.90
2022-08-22T18:05:35.209Z,21.83
2022-08-22T18:08:37.356Z,21.85
2022-08-22T18:11:15.881Z,21.89
2022-08-22T18:13:59.739Z,21.64
2022-08-22T18:16:47.492Z,21.70
2022-08-22T18:19:40.177Z,21.50
2022-08-22T18:22:16.550Z,21.64
2022-08-22T18:24:56.363Z,21.62
2022-08-22T18:27:34.528Z,21.58
2022-08-22T18:30:19.862Z,21.45
2022-08-22T18:33:00.352Z,22.00
2022-08-22T18:35:44.769Z,21.92
2022-08-22T18:38:30.575Z,21.95
2022-08-22T18:41:13.859Z,21.62
2022-08-22T18:43:49.019Z,21.64
2022-08-22T18:46:42.871Z,21.50
2022-08-22T18:49:32.124Z,21.20
2022-08-22T18:52:35.210Z,21.09
2022-08-22T18:55:39.585Z,21.34
2022-08-22T18:58:38.225Z,21.36
2022-08-22T19:01:32.422Z,21.29
2022-08-22T19:04:59.007Z,21.24
2022-08-22T19:07:55.619Z,21.19
2022-08-22T19:10:39.769Z,21.15
2022-08-22T19:13:46.916Z,20.96
2022-08-22T19:16:49.315Z,20.96
2022-08-22T19:19:53.058Z,20.91
2022-08-22T19:22:30.256Z,20.96
2022-08-22T19:25:14.776Z,21.04
2022-08-22T19:27:50.205Z,21.10
2022-08-22T19:30:45.930Z,21.03
2022-08-22T19:33:27.656Z,21.15
2022-08-22T19:36:14.204Z,21.04
2022-08-22T19:39:05.308Z,21.17
2022-08-22T19:41:48.823Z,21.23
2022-08-22T19:44:43.965Z,21.28
2022-08-22T19:47:30.522Z,21.20
2022-08-22T19:50:13.625Z,21.03
2022-08-22T19:53:12.911Z,21.16
2022-08-22T19:56:03.883Z,21.21
2022-08-22T19:58:56.545Z,21.21
2022-08-22T20:01:47.466Z,20.97
2022-08-22T20:04:53.246Z,21.05
2022-08-22T20:07:33.785Z,21.05
2022-08-22T20:10:19.766Z,20.99
2022-08-22T20:13:07.616Z,20.96
2022-08-22T20:16:10.685Z,20.91
2022-08-22T20:19:05.956Z,20.89
2022-08-22T20:22:01.010Z,21.02
2022-08-22T20:24:40.183Z,21.02
2022-08-22T20:27:21.006Z,20.79
2022-08-22T20:29:58.945Z,20.82
2022-08-22T20:32:47.264Z,20.85
2022-08-22T20:35:22.604Z,20.97
2022-08-22T20:38:07.071Z,20.84
2022-08-22T20:40:55.039Z,20.86
2022-08-22T20:43:35.667Z,20.74
2022-08-22T20:46:24.269Z,20.64
2022-08-22T20:49:02.961Z,20.60
2022-08-22T20:51:37.219Z,20.67
2022-08-22T20:54:20.558Z,20.67
2022-08-22T20:56:55.636Z,20.53
2022-08-22T20:59:32.865Z,20.34
2022-08-22T21:02:11.626Z,20.46
2022-08-22T21:04:54.671Z,20.42
2022-08-22T21:07:29.965Z,20.36
2022-08-22T21:10:22.863Z,20.30
2022-08-22T21:13:14.934Z,20.51
2022-08-22T21:15:49.193Z,20.44
2022-08-22T21:18:30.467Z,20.48
2022-08-22T21:21:17.317Z,20.34
2022-08-22T21:23:51.485Z,20.32
2022-08-22T21:26:27.488Z,20.05
2022-08-22T21:29:02.262Z,20.03
2022-08-22T21:31:38.572Z,20.03
2022-08-22T21:34:17.018Z,20.09
2022-08-22T21:36:53.864Z,20.11
2022-08-22T21:39:30.260Z,20.17
2022-08-22T21:42:14.772Z,20.06
2022-08-22T21:44:57.373Z,20.17
2022-08-22T21:47:34.408Z,20.03
2022-08-22T21:50:18.886Z,20.20
2022-08-22T21:53:10.121Z,20.27
2022-08-22T21:55:47.246Z,20.18
2022-08-22T21:58:35.691Z,20.03
2022-08-22T22:01:30.647Z,20.05
2022-08-22T22:04:03.433Z,20.04
2022-08-22T22:06:35.369Z,19.94
2022-08-22T22:09:13.228Z,19.97
2022-08-22T22:11:46.711Z,20.00
2022-08-22T22:14:18.684Z,20.06
2022-08-22T22:16:50.466Z,20.17
2022-08-22T22:19:23.249Z,20.27
2022-08-22T22:21:56.861Z,20.24
2022-08-22T22:24:31.211Z,20.33
2022-08-22T22:27:03.034Z,20.15
2022-08-22T22:29:36.147Z,20.05
2022-08-22T22:32:08.133Z,20.06
2022-08-22T22:34:40.250Z,20.05
2022-08-22T22:37:15.116Z,20.09
2022-08-22T22:39:50.007Z,19.93
2022-08-22T22:42:21.976Z,19.83
2022-08-22T22:44:54.307Z,19.85
2022-08-22T22:47:29.989Z,19.88
2022-08-22T22:50:05.365Z,19.91
2022-08-22T22:52:59.883Z,19.82
2022-08-22T22:55:34.679Z,19.83
2022-08-22T22:58:07.227Z,19.82
2022-08-22T23:00:42.525Z,19.83
2022-08-22T23:03:14.386Z,19.76
2022-08-22T23:05:46.726Z,19.87
2022-08-22T23:08:18.536Z,19.86
2022-08-22T23:10:53.455Z,19.81
2022-08-22T23:13:25.205Z,19.75
2022-08-22T23:15:57.486Z,19.85
2022-08-22T23:18:39.290Z,19.77
2022-08-22T23:21:15.796Z,19.74
2022-08-22T23:23:48.025Z,19.60
2022-08-22T23:26:23.017Z,19.75
2022-08-22T23:28:55.078Z,19.81
2022-08-22T23:31:32.795Z,19.57
2022-08-22T23:34:07.127Z,19.30
2022-08-22T23:36:40.235Z,19.26
2022-08-22T23:39:13.231Z,19.49
2022-08-22T23:41:49.495Z,19.47
2022-08-22T23:44:23.631Z,19.45
2022-08-22T23:46:59.141Z,19.06
2022-08-22T23:49:31.497Z,19.12
2022-08-22T23:52:03.804Z,19.33
2022-08-22T23:54:36.525Z,19.26
2022-08-22T23:57:12.701Z,19.08
2022-08-22T23:59:46.418Z,19.06
